createdAt,value
2023-04-16T00:02:06.033Z,4.83
2023-04-16T00:04:33.366Z,5.13
2023-04-16T00:07:00.587Z,4.60
2023-04-16T00:09:27.838Z,4.53
2023-04-16T00:11:54.982Z,4.70
2023-04-16T00:14:22.131Z,4.90
2023-04-16T00:16:49.329Z,4.87
2023-04-16T00:19:16.482Z,4.83
2023-04-16T00:21:43.695Z,4.43
2023-04-16T00:24:11.027Z,4.80
2023-04-16T00:26:38.204Z,4.63
2023-04-16T00:29:05.503Z,4.57
2023-04-16T00:31:33.346Z,4.70
2023-04-16T00:34:01.010Z,4.73
2023-04-16T00:36:28.540Z,4.63
2023-04-16T00:38:56.161Z,5.00
2023-04-16T00:41:23.634Z,4.53
2023-04-16T00:43:51.507Z,5.03
2023-04-16T00:46:21.337Z,4.87
2023-04-16T00:48:48.769Z,4.70
2023-04-16T00:51:16.039Z,4.73
2023-04-16T00:53:43.825Z,5.20
2023-04-16T00:56:11.241Z,4.73
2023-04-16T00:58:38.566Z,5.10
2023-04-16T01:01:05.973Z,5.00
2023-04-16T01:03:41.108Z,4.97
2023-04-16T01:06:08.655Z,5.00
2023-04-16T01:08:36.078Z,5.20
2023-04-16T01:11:03.372Z,5.20
2023-04-16T01:13:31.007Z,4.87
2023-04-16T01:15:58.226Z,5.10
2023-04-16T01:18:28.047Z,4.97
2023-04-16T01:20:55.322Z,4.93
2023-04-16T01:23:22.656Z,5.00
2023-04-16T01:25:49.865Z,4.80
2023-04-16T01:28:17.506Z,4.90
2023-04-16T01:30:44.717Z,5.07
2023-04-16T01:33:12.101Z,4.80
2023-04-16T01:35:40.893Z,4.83
2023-04-16T01:38:09.092Z,5.17
2023-04-16T01:40:36.662Z,5.20
2023-04-16T01:43:04.115Z,5.03
2023-04-16T01:45:34.431Z,5.00
2023-04-16T01:48:02.086Z,4.90
2023-04-16T01:50:30.615Z,4.83
2023-04-16T01:52:57.894Z,5.07
2023-04-16T01:55:25.200Z,5.07
2023-04-16T01:57:52.335Z,4.90
2023-04-16T02:00:19.488Z,5.10
2023-04-16T02:02:47.250Z,5.20
2023-04-16T02:05:14.545Z,4.93
2023-04-16T02:07:41.669Z,4.87
2023-04-16T02:10:10.304Z,4.50
2023-04-16T02:12:37.452Z,4.90
2023-04-16T02:15:04.945Z,4.80
2023-04-16T02:17:32.218Z,5.17
2023-04-16T02:19:59.387Z,4.97
2023-04-16T02:22:26.515Z,4.73
2023-04-16T02:24:53.818Z,5.20
2023-04-16T02:27:20.964Z,4.83
2023-04-16T02:29:48.121Z,5.10
2023-04-16T02:32:15.310Z,4.73
2023-04-16T02:34:43.313Z,4.60
2023-04-16T02:37:10.730Z,5.10
2023-04-16T02:39:37.836Z,4.70
2023-04-16T02:42:04.987Z,4.83
2023-04-16T02:44:33.311Z,4.73
2023-04-16T02:47:00.441Z,4.63
2023-04-16T02:49:27.672Z,4.80
2023-04-16T02:51:54.794Z,4.73
2023-04-16T02:54:21.998Z,4.47
2023-04-16T02:56:49.143Z,4.90
2023-04-16T02:59:16.271Z,4.73
2023-04-16T03:01:43.503Z,4.73
2023-04-16T03:04:10.715Z,4.90
2023-04-16T03:06:37.898Z,5.20
2023-04-16T03:09:05.045Z,4.57
2023-04-16T03:11:32.179Z,4.60
2023-04-16T03:13:59.287Z,4.40
2023-04-16T03:16:26.988Z,4.90
2023-04-16T03:18:54.117Z,4.60
2023-04-16T03:21:21.399Z,4.67
2023-04-16T03:23:48.908Z,4.90
2023-04-16T03:26:16.391Z,4.60
2023-04-16T03:28:43.522Z,4.63
2023-04-16T03:31:10.840Z,4.60
2023-04-16T03:33:37.951Z,4.70
2023-04-16T03:36:05.510Z,5.03
2023-04-16T03:38:32.652Z,4.90
2023-04-16T03:40:59.784Z,4.30
2023-04-16T03:43:26.954Z,4.53
2023-04-16T03:45:54.104Z,4.53
2023-04-16T03:48:21.258Z,4.77
2023-04-16T03:50:48.503Z,4.93
2023-04-16T03:53:15.797Z,5.10
2023-04-16T03:55:43.356Z,4.67
2023-04-16T03:58:10.845Z,4.60
2023-04-16T04:00:37.996Z,4.53
2023-04-16T04:03:05.293Z,4.70
2023-04-16T04:05:32.537Z,4.53
2023-04-16T04:07:59.699Z,4.33
2023-04-16T04:10:26.915Z,4.87
2023-04-16T04:12:54.046Z,4.67
2023-04-16T04:15:21.345Z,4.67
2023-04-16T04:17:48.498Z,4.60
2023-04-16T04:20:16.206Z,4.40
2023-04-16T04:22:43.371Z,4.37
2023-04-16T04:25:13.406Z,4.57
2023-04-16T04:27:40.787Z,4.20
2023-04-16T04:30:08.278Z,4.67
2023-04-16T04:32:35.800Z,4.23
2023-04-16T04:35:03.846Z,4.50
2023-04-16T04:37:31.016Z,4.30
2023-04-16T04:39:58.194Z,4.50
2023-04-16T04:42:25.390Z,4.57
2023-04-16T04:44:52.565Z,4.13
2023-04-16T04:47:19.709Z,4.67
2023-04-16T04:49:46.874Z,4.50
2023-04-16T04:52:14.553Z,4.37
2023-04-16T04:54:41.824Z,4.63
2023-04-16T04:57:09.443Z,4.27
2023-04-16T04:59:36.702Z,4.50
2023-04-16T05:02:03.915Z,4.70
2023-04-16T05:04:31.741Z,4.30
2023-04-16T05:06:58.872Z,4.57
2023-04-16T05:09:26.352Z,4.23
2023-04-16T05:11:54.233Z,4.23
2023-04-16T05:14:21.364Z,4.53
2023-04-16T05:16:48.527Z,4.53
2023-04-16T05:19:16.046Z,4.13
2023-04-16T05:21:43.196Z,4.40
2023-04-16T05:24:10.642Z,4.30
2023-04-16T05:26:38.405Z,4.00
2023-04-16T05:29:05.837Z,4.20
2023-04-16T05:31:33.157Z,4.17
2023-04-16T05:34:00.351Z,4.37
2023-04-16T05:36:27.490Z,4.13
2023-04-16T05:38:54.632Z,4.10
2023-04-16T05:41:21.771Z,4.43
2023-04-16T05:43:48.912Z,4.20
2023-04-16T05:46:16.115Z,4.40
2023-04-16T05:48:43.295Z,4.20
2023-04-16T05:51:10.563Z,4.10
2023-04-16T05:53:37.678Z,4.07
2023-04-16T05:56:04.881Z,4.00
2023-04-16T05:58:32.230Z,3.80
2023-04-16T06:00:59.362Z,4.13
2023-04-16T06:03:26.627Z,3.97
2023-04-16T06:05:54.041Z,4.30
2023-04-16T06:08:21.267Z,3.90
2023-04-16T06:10:48.425Z,4.13
2023-04-16T06:13:15.682Z,4.10
2023-04-16T06:15:42.899Z,4.00
2023-04-16T06:18:10.079Z,3.70
2023-04-16T06:20:37.325Z,4.30
2023-04-16T06:23:04.544Z,3.67
2023-04-16T06:25:31.687Z,3.70
2023-04-16T06:27:58.889Z,3.70
2023-04-16T06:30:26.035Z,3.80
2023-04-16T06:32:53.717Z,4.20
2023-04-16T06:35:20.904Z,3.80
2023-04-16T06:37:48.098Z,3.70
2023-04-16T06:40:15.649Z,3.87
2023-04-16T06:42:45.274Z,4.00
2023-04-16T06:45:13.069Z,4.13
2023-04-16T06:47:40.548Z,3.87
2023-04-16T06:50:08.052Z,4.00
2023-04-16T06:52:35.205Z,3.97
2023-04-16T06:55:02.628Z,3.97
2023-04-16T06:57:29.811Z,3.90
2023-04-16T06:59:56.954Z,4.00
2023-04-16T07:02:24.717Z,3.63
2023-04-16T07:04:52.447Z,3.90
2023-04-16T07:07:19.620Z,3.97
2023-04-16T07:09:46.757Z,3.93
2023-04-16T07:12:13.925Z,4.00
2023-04-16T07:14:41.076Z,3.70
2023-04-16T07:17:08.212Z,4.10
2023-04-16T07:19:35.923Z,4.10
2023-04-16T07:22:03.332Z,4.00
2023-04-16T07:24:30.655Z,4.37
2023-04-16T07:26:57.839Z,3.60
2023-04-16T07:29:24.987Z,4.10
2023-04-16T07:31:52.181Z,4.03
2023-04-16T07:34:19.387Z,5.20
2023-04-16T07:36:46.554Z,4.20
2023-04-16T07:39:13.728Z,3.80
2023-04-16T07:41:41.233Z,4.10
2023-04-16T07:44:08.431Z,4.13
2023-04-16T07:46:45.536Z,3.80
2023-04-16T07:49:14.507Z,3.87
2023-04-16T07:51:41.677Z,4.20
2023-04-16T07:54:08.844Z,4.10
2023-04-16T07:56:36.526Z,4.07
2023-04-16T07:59:14.908Z,4.20
2023-04-16T08:01:48.762Z,4.00
2023-04-16T08:04:20.178Z,3.90
2023-04-16T08:06:47.412Z,4.23
2023-04-16T08:09:14.573Z,4.30
2023-04-16T08:11:41.715Z,3.57
2023-04-16T08:14:09.028Z,4.10
2023-04-16T08:16:36.257Z,4.20
2023-04-16T08:19:03.659Z,4.00
2023-04-16T08:21:31.652Z,4.30
2023-04-16T08:23:58.787Z,4.20
2023-04-16T08:26:26.235Z,4.20
2023-04-16T08:28:53.385Z,4.03
2023-04-16T08:31:20.732Z,4.20
2023-04-16T08:33:47.923Z,3.80
2023-04-16T08:36:15.046Z,4.13
2023-04-16T08:38:42.224Z,4.33
2023-04-16T08:41:12.680Z,4.47
2023-04-16T08:43:44.365Z,4.27
2023-04-16T08:46:16.097Z,4.30
2023-04-16T08:48:44.011Z,4.57
2023-04-16T08:51:12.092Z,4.10
2023-04-16T08:53:49.301Z,4.43
2023-04-16T08:56:16.516Z,4.50
2023-04-16T08:58:44.024Z,4.13
2023-04-16T09:01:11.636Z,3.80
2023-04-16T09:03:39.299Z,4.40
2023-04-16T09:06:07.085Z,4.10
2023-04-16T09:08:35.721Z,4.30
2023-04-16T09:11:02.971Z,4.10
2023-04-16T09:13:31.888Z,4.60
2023-04-16T09:15:59.320Z,4.50
2023-04-16T09:18:28.074Z,4.20
2023-04-16T09:20:56.363Z,4.20
2023-04-16T09:23:24.960Z,4.37
2023-04-16T09:25:52.160Z,3.90
2023-04-16T09:28:46.021Z,4.07
2023-04-16T09:31:17.189Z,4.13
2023-04-16T09:33:45.364Z,4.00
2023-04-16T09:36:12.547Z,3.80
2023-04-16T09:38:54.965Z,4.17
2023-04-16T09:41:28.522Z,4.77
2023-04-16T09:43:57.581Z,4.37
2023-04-16T09:46:25.788Z,4.00
2023-04-16T09:48:53.060Z,4.23
2023-04-16T09:51:20.416Z,3.90
2023-04-16T09:53:47.756Z,3.90
2023-04-16T09:56:15.028Z,3.80
2023-04-16T09:58:42.208Z,4.17
2023-04-16T10:01:10.850Z,4.00
2023-04-16T10:03:39.987Z,3.90
2023-04-16T10:06:07.391Z,4.00
2023-04-16T10:08:34.609Z,3.80
2023-04-16T10:11:01.835Z,3.83
2023-04-16T10:13:31.017Z,4.07
2023-04-16T10:15:58.822Z,3.97
2023-04-16T10:18:26.313Z,3.90
2023-04-16T10:20:53.632Z,4.10
2023-04-16T10:23:22.067Z,3.70
2023-04-16T10:25:50.421Z,3.80
2023-04-16T10:28:18.006Z,4.03
2023-04-16T10:30:52.869Z,4.00
2023-04-16T10:33:21.674Z,3.90
2023-04-16T10:35:57.910Z,3.80
2023-04-16T10:38:35.172Z,4.30
2023-04-16T10:41:06.385Z,3.70
2023-04-16T10:43:41.204Z,4.07
2023-04-16T10:46:23.593Z,3.43
2023-04-16T10:48:52.694Z,3.87
2023-04-16T10:51:33.788Z,3.67
2023-04-16T10:54:11.760Z,3.67
2023-04-16T10:56:39.054Z,3.90
2023-04-16T10:59:06.912Z,3.73
2023-04-16T11:01:37.961Z,3.67
2023-04-16T11:04:20.768Z,3.73
2023-04-16T11:07:06.706Z,4.00
2023-04-16T11:09:52.760Z,3.27
2023-04-16T11:12:19.951Z,3.27
2023-04-16T11:14:48.872Z,3.33
2023-04-16T11:17:16.634Z,3.40
2023-04-16T11:19:43.990Z,3.60
2023-04-16T11:22:13.302Z,3.30
2023-04-16T11:24:41.009Z,3.50
2023-04-16T11:27:08.711Z,3.20
2023-04-16T11:29:36.068Z,3.20
2023-04-16T11:32:03.284Z,3.47
2023-04-16T11:34:30.527Z,3.27
2023-04-16T11:36:57.649Z,3.50
2023-04-16T11:39:24.851Z,3.63
2023-04-16T11:41:52.608Z,3.07
2023-04-16T11:44:19.707Z,3.20
2023-04-16T11:46:46.996Z,3.23
2023-04-16T11:49:14.216Z,3.40
2023-04-16T11:51:42.205Z,3.60
2023-04-16T11:54:11.855Z,3.63
2023-04-16T11:56:39.515Z,3.43
2023-04-16T11:59:11.236Z,3.50
2023-04-16T12:01:39.698Z,3.53
2023-04-16T12:04:07.529Z,3.37
2023-04-16T12:06:35.043Z,3.27
2023-04-16T12:09:22.137Z,3.23
2023-04-16T12:11:49.378Z,3.13
2023-04-16T12:14:16.534Z,3.30
2023-04-16T12:16:43.696Z,3.30
2023-04-16T12:19:12.671Z,3.50
2023-04-16T12:21:41.224Z,3.17
2023-04-16T12:24:09.261Z,3.50
2023-04-16T12:26:37.534Z,3.30
2023-04-16T12:29:20.541Z,3.50
2023-04-16T12:31:48.076Z,3.10
2023-04-16T12:34:15.668Z,3.30
2023-04-16T12:36:43.036Z,3.27
2023-04-16T12:39:13.564Z,3.10
2023-04-16T12:41:41.672Z,3.40
2023-04-16T12:44:12.195Z,2.80
2023-04-16T12:46:40.094Z,3.23
2023-04-16T12:49:07.885Z,3.00
2023-04-16T12:51:35.824Z,3.00
2023-04-16T12:54:03.894Z,3.05
2023-04-16T12:56:31.215Z,3.13
2023-04-16T12:58:58.535Z,3.25
2023-04-16T13:01:25.807Z,3.08
2023-04-16T13:03:53.222Z,2.83
2023-04-16T13:06:20.874Z,3.10
2023-04-16T13:08:47.987Z,2.80
2023-04-16T13:11:15.689Z,2.90
2023-04-16T13:13:42.909Z,2.78
2023-04-16T13:16:10.281Z,2.97
2023-04-16T13:18:37.863Z,2.80
2023-04-16T13:21:07.140Z,2.85
2023-04-16T13:23:35.239Z,2.80
2023-04-16T13:26:02.523Z,2.83
2023-04-16T13:28:29.797Z,3.10
2023-04-16T13:30:57.187Z,2.70
2023-04-16T13:33:24.614Z,2.80
2023-04-16T13:35:51.747Z,2.70
2023-04-16T13:38:19.128Z,2.60
2023-04-16T13:40:46.780Z,2.80
2023-04-16T13:43:15.357Z,2.78
2023-04-16T13:45:42.519Z,2.80
2023-04-16T13:48:10.242Z,2.70
2023-04-16T13:50:37.560Z,2.63
2023-04-16T13:53:05.157Z,2.67
2023-04-16T13:55:32.462Z,3.00
2023-04-16T13:57:59.664Z,2.70
2023-04-16T14:00:27.634Z,2.77
2023-04-16T14:02:54.952Z,2.80
2023-04-16T14:05:25.188Z,2.90
2023-04-16T14:07:53.782Z,2.50
2023-04-16T14:10:21.078Z,2.80
2023-04-16T14:12:48.216Z,2.93
2023-04-16T14:15:15.409Z,2.67
2023-04-16T14:17:43.708Z,2.80
2023-04-16T14:20:11.734Z,2.87
2023-04-16T14:22:39.758Z,2.60
2023-04-16T14:25:07.279Z,2.87
2023-04-16T14:27:34.978Z,2.60
2023-04-16T14:30:02.125Z,2.90
2023-04-16T14:32:30.540Z,2.73
2023-04-16T14:34:57.796Z,2.77
2023-04-16T14:37:26.245Z,2.70
2023-04-16T14:39:54.052Z,3.10
2023-04-16T14:42:22.374Z,2.93
2023-04-16T14:44:49.600Z,2.60
2023-04-16T14:47:16.829Z,2.80
2023-04-16T14:49:43.953Z,2.80
2023-04-16T14:52:11.508Z,2.70
2023-04-16T14:54:38.664Z,2.90
2023-04-16T14:57:06.014Z,3.07
2023-04-16T14:59:33.164Z,2.90
2023-04-16T15:02:00.437Z,2.50
2023-04-16T15:04:28.059Z,2.60
2023-04-16T15:06:58.841Z,2.80
2023-04-16T15:09:27.459Z,2.70
2023-04-16T15:11:54.843Z,2.60
2023-04-16T15:14:22.068Z,2.80
2023-04-16T15:16:49.420Z,5.70
2023-04-16T15:19:16.641Z,2.90
2023-04-16T15:21:43.938Z,2.70
2023-04-16T15:24:11.480Z,2.63
2023-04-16T15:26:38.946Z,2.77
2023-04-16T15:29:06.178Z,2.87
2023-04-16T15:31:33.428Z,2.67
2023-04-16T15:34:01.014Z,2.70
2023-04-16T15:36:28.182Z,2.77
2023-04-16T15:38:55.438Z,2.70
2023-04-16T15:41:22.623Z,2.63
2023-04-16T15:43:49.762Z,2.90
2023-04-16T15:46:16.918Z,2.70
2023-04-16T15:48:44.154Z,2.83
2023-04-16T15:51:11.648Z,2.97
2023-04-16T15:53:38.793Z,2.97
2023-04-16T15:56:06.118Z,2.93
2023-04-16T15:58:33.279Z,2.80
2023-04-16T16:01:00.440Z,2.73
2023-04-16T16:03:28.057Z,3.10
2023-04-16T16:05:56.977Z,3.10
2023-04-16T16:08:25.430Z,2.83
2023-04-16T16:10:52.568Z,2.70
2023-04-16T16:13:19.723Z,2.97
2023-04-16T16:15:46.957Z,2.70
2023-04-16T16:18:14.186Z,2.90
2023-04-16T16:20:41.347Z,2.53
2023-04-16T16:23:08.498Z,2.90
2023-04-16T16:25:35.695Z,2.80
2023-04-16T16:28:06.121Z,2.55
2023-04-16T16:30:33.775Z,2.80
2023-04-16T16:33:00.995Z,2.60
2023-04-16T16:35:28.168Z,2.90
2023-04-16T16:37:57.232Z,2.70
2023-04-16T16:40:24.597Z,2.88
2023-04-16T16:42:51.872Z,2.67
2023-04-16T16:45:19.128Z,2.88
2023-04-16T16:47:46.801Z,2.80
2023-04-16T16:50:14.071Z,2.80
2023-04-16T16:52:41.239Z,2.78
2023-04-16T16:55:10.845Z,2.60
2023-04-16T16:57:41.169Z,2.55
2023-04-16T17:00:11.936Z,2.65
2023-04-16T17:02:39.306Z,2.72
2023-04-16T17:05:06.714Z,2.72
2023-04-16T17:07:34.108Z,2.50
2023-04-16T17:10:03.743Z,2.65
2023-04-16T17:12:32.502Z,2.67
2023-04-16T17:14:59.680Z,2.55
2023-04-16T17:17:28.496Z,2.60
2023-04-16T17:19:55.712Z,2.50
2023-04-16T17:22:22.877Z,3.07
2023-04-16T17:24:50.019Z,2.50
2023-04-16T17:27:17.221Z,2.83
2023-04-16T17:29:44.373Z,2.57
2023-04-16T17:32:11.560Z,2.90
2023-04-16T17:34:38.760Z,2.50
2023-04-16T17:37:06.039Z,2.70
2023-04-16T17:39:33.228Z,2.50
2023-04-16T17:42:03.005Z,2.50
2023-04-16T17:44:30.127Z,2.47
2023-04-16T17:46:57.584Z,2.57
2023-04-16T17:49:24.785Z,2.60
2023-04-16T17:51:51.912Z,2.50
2023-04-16T17:54:19.064Z,2.60
2023-04-16T17:56:46.270Z,2.47
2023-04-16T17:59:13.433Z,2.40
2023-04-16T18:01:40.954Z,2.40
2023-04-16T18:04:08.503Z,2.50
2023-04-16T18:06:36.072Z,2.40
2023-04-16T18:09:05.713Z,2.43
2023-04-16T18:11:33.146Z,2.40
2023-04-16T18:14:00.441Z,2.40
2023-04-16T18:16:27.679Z,2.40
2023-04-16T18:18:55.018Z,2.40
2023-04-16T18:21:22.387Z,2.50
2023-04-16T18:23:49.684Z,2.40
2023-04-16T18:26:20.546Z,2.50
2023-04-16T18:28:48.209Z,2.30
2023-04-16T18:31:15.445Z,2.43
2023-04-16T18:33:53.396Z,2.40
2023-04-16T18:36:22.488Z,2.00
2023-04-16T18:39:00.008Z,2.33
2023-04-16T18:41:28.696Z,2.40
2023-04-16T18:43:55.923Z,2.30
2023-04-16T18:46:23.116Z,2.50
2023-04-16T18:48:50.290Z,2.20
2023-04-16T18:51:17.411Z,2.53
2023-04-16T18:53:45.698Z,2.37
2023-04-16T18:56:13.186Z,2.37
2023-04-16T18:58:40.432Z,2.70
2023-04-16T19:01:13.044Z,2.40
2023-04-16T19:03:40.599Z,2.40
2023-04-16T19:06:07.856Z,2.47
2023-04-16T19:08:35.010Z,2.30
2023-04-16T19:11:02.173Z,2.20
2023-04-16T19:13:30.412Z,2.33
2023-04-16T19:16:02.012Z,2.60
2023-04-16T19:18:29.300Z,2.30
2023-04-16T19:21:03.424Z,2.37
2023-04-16T19:23:30.967Z,2.30
2023-04-16T19:25:58.157Z,2.40
2023-04-16T19:28:25.855Z,2.30
2023-04-16T19:30:53.403Z,2.53
2023-04-16T19:33:20.881Z,2.30
2023-04-16T19:35:48.030Z,2.30
2023-04-16T19:38:15.567Z,2.30
2023-04-16T19:40:46.680Z,2.47
2023-04-16T19:43:14.220Z,2.50
2023-04-16T19:45:48.140Z,2.67
2023-04-16T19:48:15.352Z,2.60
2023-04-16T19:50:43.251Z,2.47
2023-04-16T19:53:11.158Z,2.30
2023-04-16T19:55:41.558Z,2.80
2023-04-16T19:58:09.368Z,2.40
2023-04-16T20:00:41.088Z,2.30
2023-04-16T20:03:08.499Z,2.40
2023-04-16T20:05:35.975Z,2.50
2023-04-16T20:08:03.105Z,2.23
2023-04-16T20:10:31.513Z,2.50
2023-04-16T20:12:58.902Z,2.10
2023-04-16T20:15:26.079Z,2.30
2023-04-16T20:17:53.545Z,2.20
2023-04-16T20:20:22.743Z,2.30
2023-04-16T20:22:50.540Z,2.60
2023-04-16T20:25:20.671Z,2.20
2023-04-16T20:27:48.274Z,2.40
2023-04-16T20:30:15.585Z,2.30
2023-04-16T20:32:42.901Z,2.60
2023-04-16T20:35:11.374Z,2.40
2023-04-16T20:37:41.516Z,2.20
2023-04-16T20:40:09.455Z,2.47
2023-04-16T20:42:36.743Z,2.33
2023-04-16T20:45:04.811Z,2.57
2023-04-16T20:47:34.475Z,2.50
2023-04-16T20:50:02.712Z,2.40
2023-04-16T20:52:29.860Z,2.70
2023-04-16T20:54:57.815Z,2.50
2023-04-16T20:57:25.771Z,2.73
2023-04-16T20:59:52.998Z,2.40
2023-04-16T21:02:20.646Z,2.20
2023-04-16T21:04:48.186Z,2.60
2023-04-16T21:07:15.573Z,2.60
2023-04-16T21:09:42.727Z,2.50
2023-04-16T21:12:09.863Z,2.80
2023-04-16T21:14:36.993Z,2.67
2023-04-16T21:17:04.195Z,2.40
2023-04-16T21:19:31.567Z,2.70
2023-04-16T21:21:58.688Z,2.20
2023-04-16T21:24:25.823Z,2.60
2023-04-16T21:26:52.927Z,2.80
2023-04-16T21:29:20.180Z,2.30
2023-04-16T21:31:47.800Z,2.50
2023-04-16T21:34:15.173Z,2.50
2023-04-16T21:36:42.764Z,2.30
2023-04-16T21:39:11.053Z,2.43
2023-04-16T21:41:38.551Z,2.40
2023-04-16T21:44:05.862Z,2.40
2023-04-16T21:46:33.051Z,2.50
2023-04-16T21:49:00.206Z,2.37
2023-04-16T21:51:30.173Z,2.53
2023-04-16T21:53:57.601Z,2.57
2023-04-16T21:56:25.156Z,2.73
2023-04-16T21:58:52.296Z,2.80
2023-04-16T22:01:19.483Z,2.63
2023-04-16T22:03:50.603Z,2.70
2023-04-16T22:06:18.328Z,2.50
2023-04-16T22:08:45.525Z,2.70
2023-04-16T22:11:12.713Z,2.70
2023-04-16T22:13:42.132Z,2.83
2023-04-16T22:16:11.602Z,2.70
2023-04-16T22:18:41.041Z,2.83
2023-04-16T22:21:08.194Z,2.53
2023-04-16T22:23:35.539Z,2.73
2023-04-16T22:26:02.914Z,2.70
2023-04-16T22:28:30.249Z,2.50
2023-04-16T22:30:57.489Z,2.97
2023-04-16T22:33:24.719Z,2.90
2023-04-16T22:35:52.043Z,2.87
2023-04-16T22:38:19.167Z,3.00
2023-04-16T22:40:48.963Z,2.90
2023-04-16T22:43:17.580Z,3.00
2023-04-16T22:45:46.223Z,3.53
2023-04-16T22:48:13.556Z,3.10
2023-04-16T22:50:41.322Z,2.83
2023-04-16T22:53:08.462Z,3.00
2023-04-16T22:55:35.682Z,3.00
2023-04-16T22:58:02.834Z,2.93
2023-04-16T23:00:29.971Z,3.23
2023-04-16T23:02:57.243Z,2.60
2023-04-16T23:05:24.590Z,2.80
2023-04-16T23:07:51.714Z,2.67
2023-04-16T23:10:18.846Z,2.90
2023-04-16T23:12:45.985Z,2.97
2023-04-16T23:15:13.166Z,2.97
2023-04-16T23:17:40.432Z,2.63
2023-04-16T23:20:10.007Z,2.60
2023-04-16T23:22:37.175Z,2.80
2023-04-16T23:25:04.462Z,2.50
2023-04-16T23:27:32.500Z,2.90
2023-04-16T23:29:59.835Z,2.60
2023-04-16T23:32:27.166Z,2.90
2023-04-16T23:34:54.388Z,2.80
2023-04-16T23:37:21.603Z,2.73
2023-04-16T23:39:48.756Z,2.90
2023-04-16T23:42:15.930Z,2.70
2023-04-16T23:44:43.050Z,2.90
2023-04-16T23:47:10.287Z,2.43
2023-04-16T23:49:37.472Z,2.80
2023-04-16T23:52:04.714Z,2.60
2023-04-16T23:54:31.858Z,2.83
2023-04-16T23:56:59.042Z,3.00
2023-04-16T23:59:26.233Z,2.73
